Nearby METAR Reports

 

EGQL - Leuchars Raf, United Kingdom
Distance from station: SW 11mi, 17km
Updated: 21/04/2018 05:50
Clear
Clear
 Wind from E
Wind: E 1 mph , 2 km/h
Temperature: 4°C
Dew Point: 2°C
Humidity: 87%
Barometer: 1022 hPa
Summary: Clear
Visibility: greater than 7 miles , 10 km
2018/04/21 04:50 EGQL 210450Z 09001KT CAVOK 04/02 Q1022 BLU
EGPN - Dundee/Riverside, United Kingdom
Distance from station: WSW 13mi, 20km
Updated: 20/04/2018 20:20
NOT Current
Few Clouds
Few Clouds
 Wind from W
Wind: W 9 mph , 15 km/h
Temperature: 12°C
Dew Point: 6°C
Humidity: 67%
Barometer: 1022 hPa
Clouds: Few Clouds
Visibility: 6 miles , 10 km
Cloud details: Few Clouds 1280 m
2018/04/20 19:20 EGPN 201920Z 27008KT 9999 FEW042 12/06 Q1022
 
EGPH - Edinburgh Airpor, United Kingdom
Distance from station: SSW 46mi, 74km
Updated: 21/04/2018 06:50
Clear
Clear
 Wind from calm
Wind: Calm
Temperature: 4°C
Dew Point: 3°C
Humidity: 93%
Barometer: 1022 hPa
Summary: Clear
Visibility: greater than 7 miles , 10 km
2018/04/21 05:50 EGPH 210550Z 00000KT CAVOK 04/03 Q1022
EGPD - Aberdeen/Dyce, United Kingdom
Distance from station: NNE 51mi, 82km
Updated: 21/04/2018 06:50
Clear
Clear
 Wind from N
Wind: N 2 mph , 4 km/h
Temperature: 4°C
Dew Point: 2°C
Humidity: 87%
Barometer: 1021 hPa
Clouds: Clear
Visibility: 6 miles , 10 km
2018/04/21 05:50 EGPD 210550Z AUTO 01002KT 9999 NCD 04/02 Q1021 NOSIG